NCAR-RAP Real-Time Weather Data

Output produced by METARs form (14 October 2019  23:14 UTC)
found at http://weather.rap.ucar.edu/surface/
 
KRAP 142252Z 34023G37KT 10SM CLR 16/M01 A2979 RMK AO2 PK WND 35039/2239 RAB2155E2158 SLP095 P0000 T01611011 $
KRAP 142152Z 34025G34KT 10SM CLR 18/M01 A2976 RMK AO2 PK WND 36035/2140 SLP081 T01781006 $
KRAP 142052Z 36022G33KT 10SM CLR 19/M02 A2973 RMK AO2 PK WND 36034/2027 SLP069 T01891017 58004 $
KRAP 141952Z 35018G26KT 10SM CLR 17/M01 A2974 RMK AO2 PK WND 35026/1950 SLP072 T01721006 $
KRAP 141852Z 36008KT 10SM CLR 16/M01 A2974 RMK AO2 SLP072 T01611011 $
KRAP 141752Z 01011G16KT 10SM CLR 14/M01 A2974 RMK AO2 SLP077 T01391011 10139 21028 58004 $
KRAP 141652Z 34009KT 10SM CLR 12/M01 A2975 RMK AO2 SLP084 T01171011 $
KRAP 141552Z 32005KT 10SM CLR 09/M02 A2975 RMK AO2 SLP087 T00891022 $
KRAP 141452Z 36006KT 10SM CLR 04/M02 A2975 RMK AO2 SLP094 T00441017 56006 $
KRAP 141352Z 36005KT 10SM CLR 01/M03 A2976 RMK AO2 SLP102 T00061033 $
KRAP 141252Z 01004KT 10SM CLR M02/M06 A2976 RMK AO2 SLP099 T10221056 $
KRAP 141152Z AUTO 00000KT 10SM CLR M01/M06 A2977 RMK AO2 SLP099 T10111061 10033 21039 56015 $
KRAP 141052Z AUTO 15003KT 10SM CLR M01/M06 A2979 RMK AO2 SLP100 T10111061 $
KRAP 140952Z AUTO 00000KT 10SM CLR M01/M06 A2980 RMK AO2 SLP103 T10111061 $
KRAP 140852Z AUTO 00000KT 10SM CLR M01/M06 A2982 RMK AO2 SLP112 T10061061 58021 $
KRAP 140752Z AUTO 13004KT 10SM CLR 01/M06 A2985 RMK AO2 SLP117 T00111061 $
KRAP 140652Z AUTO 13004KT 10SM CLR 02/M06 A2987 RMK AO2 SLP128 T00171061 401281067 $
KRAP 140552Z AUTO 16004KT 10SM CLR 02/M05 A2989 RMK AO2 SLP136 60000 T00171050 10089 21011 58007 $
KRAP 140452Z AUTO 00000KT 10SM CLR 01/M05 A2990 RMK AO2 SLP146 T00111050 $
KRAP 140352Z 20005KT 10SM CLR 02/M04 A2991 RMK AO2 SLP150 T00221044 $
KRAP 140252Z COR 00000KT 10SM CLR 02/M04 A2991 RMK AO2 SNB10E21 SLP157 P0000 60000 T00171044 58001 $
KRAP 140152Z 28003KT 10SM CLR 01/M04 A2992 RMK AO2 SLP164 T00111044 $
KRAP 140052Z 00000KT 10SM CLR 06/M04 A2991 RMK AO2 SLP152 T00611044 $
KRAP 132352Z 14005KT 10SM CLR 09/M03 A2992 RMK AO2 SLP154 T00891033 10128 20083 53002 $
KRAP 132252Z 13005KT 10SM CLR 12/M05 A2991 RMK AO2 SLP147 T01171050 $
KRAP 132152Z VRB05KT 10SM CLR 12/M06 A2991 RMK AO2 SLP148 T01221056 $
KRAP 132052Z 22003KT 10SM CLR 12/M06 A2991 RMK AO2 SLP147 T01171061 56016 $
KRAP 131952Z 00000KT 10SM CLR 12/M06 A2992 RMK AO2 SLP151 T01171061 $
KRAP 131852Z VRB03KT 10SM CLR 09/M07 A2995 RMK AO2 SLP164 T00941067 $
KRAP 131752Z VRB03KT 10SM CLR 08/M06 A2996 RMK AO2 SLP166 T00831056 10083 21050 57001 $
KRAP 131652Z 00000KT 10SM CLR 06/M05 A2996 RMK AO2 SLP171 T00561050 $
KRAP 131552Z 20004KT 10SM CLR 03/M06 A2997 RMK AO2 SLP172 T00281056 $
KRAP 131452Z 24005KT 10SM CLR M01/M07 A2996 RMK AO2 SLP179 T10111067 53017 $
KRAP 131352Z 00000KT 10SM CLR M04/M08 A2993 RMK AO2 SLP169 T10391083 $
KRAP 131252Z 08003KT 10SM CLR M03/M09 A2992 RMK AO2 SLP160 T10331094 $
KRAP 131152Z AUTO 05004KT 10SM CLR M05/M10 A2991 RMK AO2 SLP156 T10501100 11022 21067 55003 $
KRAP 131052Z AUTO 00000KT 10SM CLR M05/M11 A2990 RMK AO2 SLP150 T10501106 $
KRAP 130952Z AUTO 31006KT 10SM CLR M06/M11 A2990 RMK AO2 SLP149 T10561106 $
KRAP 130852Z AUTO 29005KT 10SM CLR M04/M09 A2992 RMK AO2 SLP152 T10391089 50004 $
KRAP 130752Z AUTO 32005KT 10SM CLR M04/M09 A2992 RMK AO2 SLP155 T10441089 $
KRAP 130652Z AUTO 32003KT 10SM CLR M06/M09 A2991 RMK AO2 SLP156 T10561094 401001072 $
KRAP 130552Z AUTO 30004KT 10SM CLR M02/M08 A2990 RMK AO2 SLP150 T10221083 10061 21050 51001 $
KRAP 130452Z AUTO 01003KT 10SM CLR M03/M08 A2990 RMK AO2 SLP152 T10331083 $
KRAP 130352Z 00000KT 10SM CLR 00/M08 A2990 RMK AO2 SLP149 T00001083 $
KRAP 130252Z 29005KT 10SM CLR M02/M07 A2990 RMK AO2 SLP152 T10171072 51007 $
KRAP 130152Z 34009KT 10SM CLR 01/M07 A2989 RMK AO2 SLP153 T00111067 $
KRAP 130052Z 34010KT 10SM CLR 03/M06 A2989 RMK AO2 SLP146 T00281061 $
KRAP 122352Z 36010KT 10SM CLR 06/M06 A2988 RMK AO2 SLP140 T00611061 10100 20056 51002 $